createdAt,value
2023-05-21T00:04:33.775Z,9.73
2023-05-21T00:09:38.205Z,10.20
2023-05-21T00:14:40.892Z,9.20
2023-05-21T00:19:50.085Z,11.03
2023-05-21T00:24:53.110Z,9.67
2023-05-21T00:29:55.895Z,11.57
2023-05-21T00:35:00.259Z,10.60
2023-05-21T00:40:06.527Z,9.93
2023-05-21T00:45:10.107Z,9.37
2023-05-21T00:50:21.741Z,11.90
2023-05-21T00:55:25.377Z,8.93
2023-05-21T01:00:28.720Z,9.40
2023-05-21T01:05:33.106Z,11.70
2023-05-21T01:10:35.958Z,11.57
2023-05-21T01:15:39.152Z,9.47
2023-05-21T01:20:48.275Z,12.30
2023-05-21T01:25:54.803Z,10.50
2023-05-21T01:31:03.639Z,7.63
2023-05-21T01:36:25.120Z,10.17
2023-05-21T01:41:33.922Z,7.73
2023-05-21T01:46:37.785Z,7.60
2023-05-21T01:51:41.075Z,10.60
2023-05-21T01:56:47.795Z,10.10
2023-05-21T02:01:50.599Z,9.90
2023-05-21T02:06:54.750Z,12.30
2023-05-21T02:11:59.129Z,9.20
2023-05-21T02:17:02.289Z,8.50
2023-05-21T02:22:05.154Z,10.33
2023-05-21T02:27:10.502Z,11.27
2023-05-21T02:32:13.900Z,11.60
2023-05-21T02:37:18.858Z,9.93
2023-05-21T02:42:23.601Z,10.70
2023-05-21T02:47:28.169Z,7.47
2023-05-21T02:52:31.282Z,9.37
2023-05-21T02:57:35.663Z,8.67
2023-05-21T03:02:38.505Z,9.40
2023-05-21T03:07:41.978Z,8.37
2023-05-21T03:12:46.099Z,10.07
2023-05-21T03:17:49.844Z,10.40
2023-05-21T03:22:55.369Z,9.60
2023-05-21T03:27:59.628Z,8.17
2023-05-21T03:33:20.730Z,9.10
2023-05-21T03:38:26.212Z,8.00
2023-05-21T03:43:32.645Z,9.53
2023-05-21T03:48:35.671Z,9.20
2023-05-21T03:53:38.382Z,9.17
2023-05-21T03:58:42.726Z,7.73
2023-05-21T04:03:45.787Z,7.10
2023-05-21T04:08:49.930Z,9.10
2023-05-21T04:13:56.797Z,8.53
2023-05-21T04:18:59.548Z,8.30
2023-05-21T04:24:03.820Z,9.77
2023-05-21T04:29:29.882Z,12.70
2023-05-21T04:34:33.900Z,9.33
2023-05-21T04:39:40.966Z,8.77
2023-05-21T04:44:45.523Z,12.60
2023-05-21T04:49:48.564Z,11.33
2023-05-21T04:54:51.748Z,9.13
2023-05-21T04:59:58.159Z,11.23
2023-05-21T05:05:02.282Z,10.60
2023-05-21T05:10:09.672Z,11.77
2023-05-21T05:15:13.891Z,8.33
2023-05-21T05:20:17.199Z,9.97
2023-05-21T05:25:22.983Z,8.00
2023-05-21T05:30:28.574Z,10.73
2023-05-21T05:35:39.495Z,15.60
2023-05-21T05:40:43.440Z,13.07
2023-05-21T05:45:50.202Z,8.60
2023-05-21T05:50:54.610Z,7.83
2023-05-21T05:55:57.953Z,10.37
2023-05-21T06:01:03.013Z,12.57
2023-05-21T06:06:06.120Z,8.67
2023-05-21T06:11:09.547Z,10.27
2023-05-21T06:16:13.791Z,8.30
2023-05-21T06:21:16.718Z,10.07
2023-05-21T06:26:21.984Z,9.17
2023-05-21T06:31:28.032Z,10.50
2023-05-21T06:36:32.682Z,9.90
2023-05-21T06:41:39.654Z,11.07
2023-05-21T06:47:23.107Z,9.73
2023-05-21T06:52:53.436Z,13.97
2023-05-21T06:58:02.642Z,16.23
2023-05-21T07:03:08.649Z,11.30
2023-05-21T07:08:14.379Z,26.70
2023-05-21T07:13:17.557Z,34.27
2023-05-21T07:18:22.261Z,10.20
2023-05-21T07:23:26.227Z,29.70
2023-05-21T07:28:29.006Z,13.83
2023-05-21T07:33:36.671Z,11.53
2023-05-21T07:38:40.216Z,15.10
2023-05-21T07:43:44.915Z,12.00
2023-05-21T07:48:57.281Z,15.10
2023-05-21T07:54:01.103Z,14.77
2023-05-21T07:59:08.845Z,10.10
2023-05-21T08:04:16.670Z,10.70
2023-05-21T08:09:21.676Z,10.33
2023-05-21T08:14:26.500Z,11.23
2023-05-21T08:19:33.924Z,13.53
2023-05-21T08:24:37.579Z,13.27
2023-05-21T08:29:40.521Z,19.10
2023-05-21T08:34:49.228Z,10.23
2023-05-21T08:40:16.286Z,10.20
2023-05-21T08:45:25.627Z,12.27
2023-05-21T08:50:32.485Z,15.83
2023-05-21T08:55:46.684Z,11.60
2023-05-21T09:00:59.612Z,11.73
2023-05-21T09:06:09.177Z,22.37
2023-05-21T09:11:15.658Z,14.33
2023-05-21T09:16:35.870Z,12.37
2023-05-21T09:21:43.482Z,13.40
2023-05-21T09:27:12.288Z,11.90
2023-05-21T09:32:18.991Z,13.00
2023-05-21T09:37:27.402Z,11.80
2023-05-21T09:42:49.347Z,13.03
2023-05-21T09:48:09.553Z,17.00
2023-05-21T09:53:47.336Z,14.40
2023-05-21T09:58:40.948Z,11.10
2023-05-21T10:03:50.747Z,11.83
2023-05-21T10:09:02.548Z,14.37
2023-05-21T10:14:10.501Z,19.47
2023-05-21T10:19:19.561Z,19.93
2023-05-21T10:24:25.887Z,15.00
2023-05-21T10:29:30.383Z,17.63
2023-05-21T10:34:33.220Z,13.63
2023-05-21T10:39:39.956Z,12.73
2023-05-21T10:45:01.388Z,13.23
2023-05-21T10:50:27.684Z,15.73
2023-05-21T10:55:58.322Z,14.60
2023-05-21T11:01:07.040Z,16.23
2023-05-21T11:06:11.674Z,14.30
2023-05-21T11:11:43.764Z,16.50
2023-05-21T11:16:49.399Z,13.37
2023-05-21T11:21:52.566Z,12.93
2023-05-21T11:27:04.652Z,13.33
2023-05-21T11:32:09.191Z,14.73
2023-05-21T11:37:40.756Z,17.80
2023-05-21T11:43:03.217Z,12.80
2023-05-21T11:48:08.771Z,19.17
2023-05-21T11:53:18.336Z,13.10
2023-05-21T11:58:23.033Z,24.47
2023-05-21T12:03:30.840Z,15.23
2023-05-21T12:08:34.508Z,15.25
2023-05-21T12:13:40.673Z,23.73
2023-05-21T12:18:46.577Z,17.00
2023-05-21T12:24:00.999Z,13.30
2023-05-21T12:29:08.031Z,17.60
2023-05-21T12:34:11.933Z,12.93
2023-05-21T12:39:15.847Z,12.80
2023-05-21T12:44:20.146Z,12.77
2023-05-21T12:49:34.981Z,17.63
2023-05-21T12:54:38.898Z,12.00
2023-05-21T12:59:51.052Z,14.07
2023-05-21T13:04:58.987Z,12.13
2023-05-21T13:10:06.695Z,12.27
2023-05-21T13:15:27.812Z,15.43
2023-05-21T13:20:36.342Z,17.13
2023-05-21T13:25:40.053Z,12.20
2023-05-21T13:30:46.694Z,13.17
2023-05-21T13:35:51.961Z,14.70
2023-05-21T13:40:55.245Z,11.33
2023-05-21T13:45:59.416Z,11.47
2023-05-21T13:51:02.263Z,13.47
2023-05-21T13:56:07.160Z,17.40
2023-05-21T14:01:13.830Z,13.00
2023-05-21T14:06:17.311Z,13.60
2023-05-21T14:11:20.393Z,12.63
2023-05-21T14:16:27.199Z,14.33
2023-05-21T14:21:32.749Z,12.50
2023-05-21T14:26:36.917Z,13.10
2023-05-21T14:31:41.642Z,13.03
2023-05-21T14:36:44.502Z,16.83
2023-05-21T14:41:47.410Z,14.07
2023-05-21T14:46:52.165Z,18.30
2023-05-21T14:51:57.141Z,14.67
2023-05-21T14:57:00.024Z,12.50
2023-05-21T15:02:04.503Z,14.00
2023-05-21T15:07:07.737Z,13.83
2023-05-21T15:12:10.844Z,14.53
2023-05-21T15:17:15.092Z,14.93
2023-05-21T15:22:19.146Z,15.63
2023-05-21T15:27:35.953Z,18.13
2023-05-21T15:32:39.984Z,15.30
2023-05-21T15:37:47.537Z,14.40
2023-05-21T15:42:50.431Z,13.60
2023-05-21T15:47:54.743Z,15.93
2023-05-21T15:52:57.756Z,14.10
2023-05-21T15:58:02.238Z,33.90
2023-05-21T16:03:06.859Z,16.53
2023-05-21T16:08:10.703Z,18.33
2023-05-21T16:13:13.504Z,15.90
2023-05-21T16:18:17.719Z,14.20
2023-05-21T16:23:20.437Z,19.57
2023-05-21T16:28:24.237Z,13.67
2023-05-21T16:33:37.570Z,13.93
2023-05-21T16:38:40.278Z,13.63
2023-05-21T16:43:43.137Z,14.57
2023-05-21T16:48:47.247Z,17.13
2023-05-21T16:53:49.998Z,13.63
2023-05-21T16:58:52.812Z,13.70
2023-05-21T17:03:57.203Z,14.47
2023-05-21T17:09:00.398Z,14.43
2023-05-21T17:14:03.209Z,21.10
2023-05-21T17:19:07.425Z,14.73
2023-05-21T17:24:10.283Z,13.70
2023-05-21T17:29:13.033Z,13.10
2023-05-21T17:34:17.892Z,18.90
2023-05-21T17:39:21.003Z,15.80
2023-05-21T17:44:23.852Z,15.80
2023-05-21T17:49:35.435Z,13.50
2023-05-21T17:54:41.429Z,18.03
2023-05-21T17:59:46.445Z,15.57
2023-05-21T18:04:50.930Z,14.70
2023-05-21T18:09:53.784Z,15.83
2023-05-21T18:15:02.238Z,16.73
2023-05-21T18:26:22.797Z,15.07
2023-05-21T18:31:26.174Z,15.17
2023-05-21T18:36:58.749Z,16.97
2023-05-21T18:42:12.951Z,18.43
2023-05-21T18:47:50.613Z,17.30
2023-05-21T18:59:32.355Z,17.10
2023-05-21T19:04:52.668Z,17.43
2023-05-21T19:10:12.015Z,24.10
2023-05-21T19:16:06.818Z,18.63
2023-05-21T19:21:52.587Z,19.13
2023-05-21T19:27:58.125Z,41.63
2023-05-21T19:33:13.215Z,21.63
2023-05-21T19:44:12.740Z,18.60
2023-05-21T19:49:15.800Z,20.60
2023-05-21T19:54:18.964Z,16.07
2023-05-21T19:59:26.172Z,20.00
2023-05-21T20:04:28.881Z,18.87
2023-05-21T20:09:32.102Z,17.67
2023-05-21T20:14:36.174Z,27.87
2023-05-21T20:19:40.297Z,25.40
2023-05-21T20:24:42.962Z,32.83
2023-05-21T20:29:47.533Z,26.63
2023-05-21T20:35:02.859Z,31.00
2023-05-21T20:40:09.079Z,34.00
2023-05-21T20:45:15.655Z,33.03
2023-05-21T20:50:21.666Z,31.83
2023-05-21T20:55:24.520Z,31.30
2023-05-21T21:00:30.597Z,29.50
2023-05-21T21:05:33.299Z,28.43
2023-05-21T21:10:36.922Z,30.17
2023-05-21T21:15:43.604Z,27.00
2023-05-21T21:20:49.487Z,30.30
2023-05-21T21:25:52.502Z,27.17
2023-05-21T21:30:56.611Z,30.30
2023-05-21T21:36:03.034Z,22.97
2023-05-21T21:41:07.446Z,25.33
2023-05-21T21:46:12.128Z,17.10
2023-05-21T21:51:15.589Z,18.60
2023-05-21T21:56:18.464Z,13.30
2023-05-21T22:01:22.717Z,13.67
2023-05-21T22:06:28.512Z,12.43
2023-05-21T22:11:32.059Z,14.20
2023-05-21T22:16:43.824Z,12.57
2023-05-21T22:21:46.609Z,15.57
2023-05-21T22:26:49.626Z,14.73
2023-05-21T22:31:53.916Z,18.97
2023-05-21T22:36:57.810Z,22.60
2023-05-21T22:42:00.772Z,24.70
2023-05-21T22:47:05.364Z,21.70
2023-05-21T22:52:13.250Z,16.00
2023-05-21T22:57:16.053Z,21.63
2023-05-21T23:02:20.271Z,17.23
2023-05-21T23:07:23.002Z,16.60
2023-05-21T23:12:25.882Z,16.17
2023-05-21T23:17:29.997Z,15.63
2023-05-21T23:22:32.845Z,19.13
2023-05-21T23:27:35.834Z,15.37
2023-05-21T23:32:39.963Z,23.60
2023-05-21T23:37:48.824Z,20.27
2023-05-21T23:42:51.540Z,20.10
2023-05-21T23:47:55.845Z,16.73
2023-05-21T23:52:59.512Z,16.53
2023-05-21T23:58:06.709Z,15.43
